3 Sierra Delta The Best of the best…

April 22, 2008

DJ: SNA to PPA

Filed under: — cdehmer @ 9:31 am

FlightAware > Live Flight Tracker > Track Log > N833SD > 22-Apr-2008 > SC4-KPPA

Live Flight Track Log (N833SD)

All times are in Eastern time to prevent timezone crossing confusion. See flight status page for local times. 

Time Position Ground
speed
Altitude Facility
Eastern TZ Latitude Longitude kts Feet Location/Type
07:15AM 33.72 -117.72 137 4000 level Southern California TRACON
07:17AM 33.73 -117.67 140 4900 climbing Southern California TRACON
07:18AM 33.73 -117.62 159 5500 climbing Southern California TRACON
07:18AM 33.75 -117.58 163 5900 climbing Southern California TRACON
07:19AM 33.77 -117.52 167 6400 climbing Southern California TRACON
07:20AM 33.77 -117.47 170 7000 climbing Southern California TRACON
07:21AM 33.78 -117.42 170 7500 climbing Southern California TRACON
07:22AM 33.80 -117.37 171 8000 climbing Southern California TRACON
07:23AM 33.80 -117.30 170 8500 climbing Southern California TRACON
07:24AM 33.81 -117.29 171 8600 climbing Los Angeles Center
07:24AM 33.82 -117.25 173 9100 climbing Southern California TRACON
07:25AM 33.82 -117.24 171 9100 level Los Angeles Center
07:25AM 33.83 -117.20 177 9500 climbing Southern California TRACON
07:26AM 33.83 -117.18 171 9600 climbing Los Angeles Center
07:26AM 33.83 -117.15 176 10100 climbing Southern California TRACON
07:27AM 33.84 -117.13 176 10200 climbing Los Angeles Center
07:27AM 33.85 -117.08 177 10600 climbing Southern California TRACON
07:28AM 33.86 -117.07 176 10700 climbing Los Angeles Center
07:28AM 33.87 -117.03 178 11100 climbing Southern California TRACON
07:29AM 33.87 -117.01 176 11200 climbing Los Angeles Center
07:29AM 33.87 -116.97 181 11600 climbing Southern California TRACON
07:30AM 33.88 -116.95 181 11800 climbing Los Angeles Center
07:31AM 33.89 -116.90 198 12300 climbing Los Angeles Center
07:32AM 33.90 -116.84 193 12700 climbing Los Angeles Center
07:33AM 33.92 -116.77 193 12700 level Los Angeles Center
07:34AM 33.93 -116.70 193 13100 climbing Los Angeles Center
07:35AM 33.94 -116.64 193 13600 climbing Los Angeles Center
07:36AM 33.96 -116.58 182 14100 climbing Los Angeles Center
07:37AM 33.97 -116.52 182 14500 climbing Los Angeles Center
07:38AM 33.98 -116.46 187 15000 climbing Los Angeles Center
07:39AM 33.99 -116.39 186 15500 climbing Los Angeles Center
07:40AM 34.00 -116.33 186 16000 climbing Los Angeles Center
07:41AM 34.01 -116.27 186 16500 climbing Los Angeles Center
07:42AM 34.03 -116.20 191 16900 climbing Los Angeles Center
07:43AM 34.04 -116.14 196 17300 climbing Los Angeles Center
07:44AM 34.05 -116.06 203 17700 climbing Los Angeles Center
07:45AM 34.06 -115.99 208 18100 climbing Los Angeles Center
07:46AM 34.07 -115.93 208 18600 climbing Los Angeles Center
07:47AM 34.08 -115.87 202 18900 climbing Los Angeles Center
07:48AM 34.09 -115.79 202 19400 climbing Los Angeles Center
07:49AM 34.10 -115.72 202 19900 climbing Los Angeles Center
07:50AM 34.11 -115.65 202 20300 climbing Los Angeles Center
07:51AM 34.13 -115.59 202 20700 climbing Los Angeles Center
07:52AM 34.14 -115.52 208 21100 climbing Los Angeles Center
07:53AM 34.15 -115.45 214 25000 climbing Los Angeles Center
07:54AM 34.15 -115.39 214 22100 descending Los Angeles Center
07:55AM 34.17 -115.32 207 23000 climbing Los Angeles Center
07:56AM 34.18 -115.25 202 23600 climbing Los Angeles Center
07:57AM 34.19 -115.19 202 24200 climbing Los Angeles Center
07:58AM 34.21 -115.10 202 24700 climbing Los Angeles Center
07:59AM 34.22 -115.03 209 24900 climbing Los Angeles Center
08:00AM 34.23 -114.95 215 24900 level Los Angeles Center
08:01AM 34.24 -114.87 232 24900 level Los Angeles Center
08:02AM 34.26 -114.79 239 24800 descending Los Angeles Center
08:02AM 34.26 -114.77 238 24900 climbing Albuquerque Center
08:03AM 34.27 -114.69 238 24900 level Albuquerque Center
08:04AM 34.29 -114.59 238 24900 level Albuquerque Center
08:05AM 34.30 -114.52 232 24900 level Albuquerque Center
08:06AM 34.31 -114.44 243 24900 level Albuquerque Center
08:07AM 34.33 -114.34 227 24900 level Albuquerque Center
08:08AM 34.34 -114.26 228 24900 level Albuquerque Center
08:09AM 34.35 -114.19 233 24900 level Albuquerque Center
08:10AM 34.36 -114.11 233 24900 level Albuquerque Center
08:11AM 34.37 -114.04 233 24900 level Albuquerque Center
08:12AM 34.38 -113.96 239 24900 level Albuquerque Center
08:13AM 34.39 -113.88 233 24900 level Albuquerque Center
08:14AM 34.41 -113.81 239 24900 level Albuquerque Center
08:15AM 34.42 -113.72 232 25000 climbing Albuquerque Center
08:16AM 34.43 -113.65 237 24900 descending Albuquerque Center
08:17AM 34.44 -113.57 237 24900 level Albuquerque Center
08:18AM 34.46 -113.49 237 24900 level Albuquerque Center
08:19AM 34.48 -113.41 237 24800 descending Albuquerque Center
08:20AM 34.48 -113.33 237 24900 climbing Albuquerque Center
08:21AM 34.50 -113.26 237 24900 level Albuquerque Center
08:22AM 34.51 -113.17 237 24900 level Albuquerque Center
08:23AM 34.52 -113.09 237 24900 level Albuquerque Center
08:24AM 34.53 -113.01 237 24900 level Albuquerque Center
08:25AM 34.54 -112.93 237 24900 level Albuquerque Center
08:26AM 34.55 -112.85 237 24900 level Albuquerque Center
08:27AM 34.56 -112.77 237 24900 level Albuquerque Center
08:28AM 34.57 -112.69 237 24900 level Albuquerque Center
08:29AM 34.58 -112.61 237 24900 level Albuquerque Center
08:30AM 34.60 -112.53 237 24900 level Albuquerque Center
08:31AM 34.61 -112.46 237 24900 level Albuquerque Center
08:32AM 34.62 -112.38 237 24900 level Albuquerque Center
08:33AM 34.63 -112.30 237 24900 level Albuquerque Center
08:34AM 34.64 -112.22 237 24900 level Albuquerque Center
08:35AM 34.65 -112.14 237 24900 level Albuquerque Center
08:36AM 34.66 -112.06 237 24900 level Albuquerque Center
08:37AM 34.67 -111.99 237 24900 level Albuquerque Center
08:38AM 34.68 -111.90 237 24900 level Albuquerque Center
08:39AM 34.69 -111.83 237 24900 level Albuquerque Center
08:40AM 34.70 -111.75 237 24900 level Albuquerque Center
08:41AM 34.71 -111.67 237 24800 descending Albuquerque Center
08:42AM 34.72 -111.59 237 24900 climbing Albuquerque Center
08:43AM 34.73 -111.52 237 24900 level Albuquerque Center
08:44AM 34.74 -111.44 237 24800 descending Albuquerque Center
08:45AM 34.75 -111.36 237 24800 level Albuquerque Center
08:46AM 34.76 -111.28 237 24900 climbing Albuquerque Center
08:47AM 34.77 -111.20 237 24900 level Albuquerque Center
08:48AM 34.78 -111.12 237 24800 descending Albuquerque Center
08:49AM 34.79 -111.04 237 24800 level Albuquerque Center
08:50AM 34.80 -110.96 237 24800 level Albuquerque Center
08:51AM 34.81 -110.88 237 24900 climbing Albuquerque Center
08:52AM 34.82 -110.79 246 24900 level Albuquerque Center
08:53AM 34.83 -110.71 239 24900 level Albuquerque Center
08:54AM 34.84 -110.64 239 24900 level Albuquerque Center
08:55AM 34.85 -110.56 239 24900 level Albuquerque Center
08:56AM 34.86 -110.48 234 24900 level Albuquerque Center
08:57AM 34.87 -110.40 228 24900 level Albuquerque Center
08:58AM 34.88 -110.32 228 24900 level Albuquerque Center
08:59AM 34.89 -110.25 228 24800 descending Albuquerque Center
09:00AM 34.89 -110.17 233 24900 climbing Albuquerque Center
09:01AM 34.90 -110.11 233 24900 level Albuquerque Center
09:02AM 34.91 -110.01 233 24900 level Albuquerque Center
09:03AM 34.92 -109.94 233 24800 descending Albuquerque Center
09:04AM 34.93 -109.85 233 24900 climbing Albuquerque Center
09:05AM 34.94 -109.78 233 24900 level Albuquerque Center
09:06AM 34.95 -109.71 233 24800 descending Albuquerque Center
09:07AM 34.96 -109.63 239 24900 climbing Albuquerque Center
09:08AM 34.97 -109.54 233 24900 level Albuquerque Center
09:09AM 34.98 -109.47 227 24800 descending Albuquerque Center
09:10AM 34.99 -109.39 232 24900 climbing Albuquerque Center
09:12AM 34.99 -109.32 232 24800 descending Albuquerque Center
09:13AM 35.00 -109.21 237 24900 climbing Albuquerque Center
09:14AM 35.01 -109.14 231 24800 descending Albuquerque Center
09:15AM 35.02 -109.07 231 24800 level Albuquerque Center
09:16AM 35.03 -108.98 231 24800 level Albuquerque Center
09:17AM 35.04 -108.90 231 24800 level Albuquerque Center
09:18AM 35.05 -108.83 231 24800 level Albuquerque Center
09:19AM 35.05 -108.75 231 24800 level Albuquerque Center
09:20AM 35.06 -108.67 236 24800 level Albuquerque Center
09:21AM 35.07 -108.59 231 24800 level Albuquerque Center
09:22AM 35.08 -108.52 231 24800 level Albuquerque Center
09:23AM 35.09 -108.43 231 24800 level Albuquerque Center
09:24AM 35.10 -108.36 236 24900 climbing Albuquerque Center
09:25AM 35.10 -108.28 236 24800 descending Albuquerque Center
09:26AM 35.11 -108.22 236 25000 climbing Albuquerque Center
09:27AM 35.12 -108.13 231 24800 descending Albuquerque Center
09:28AM 35.13 -108.04 237 24800 level Albuquerque Center
09:29AM 35.13 -107.97 237 24800 level Albuquerque Center
09:30AM 35.14 -107.89 237 24800 level Albuquerque Center
09:31AM 35.15 -107.81 237 24800 level Albuquerque Center
09:32AM 35.16 -107.73 237 24800 level Albuquerque Center
09:33AM 35.17 -107.66 237 24800 level Albuquerque Center
09:34AM 35.18 -107.58 237 24800 level Albuquerque Center
09:35AM 35.18 -107.50 237 24800 level Albuquerque Center
09:36AM 35.19 -107.42 232 24800 level Albuquerque Center
09:37AM 35.20 -107.35 237 24800 level Albuquerque Center
09:38AM 35.20 -107.26 237 24800 level Albuquerque Center
09:39AM 35.21 -107.18 232 24800 level Albuquerque Center
09:40AM 35.22 -107.10 232 24800 level Albuquerque Center
09:41AM 35.22 -107.03 232 24800 level Albuquerque Center
09:42AM 35.23 -106.95 232 24800 level Albuquerque Center
09:43AM 35.24 -106.87 237 24800 level Albuquerque Center
09:44AM 35.25 -106.78 237 24800 level Albuquerque Center
09:45AM 35.25 -106.72 237 24800 level Albuquerque Center
09:46AM 35.26 -106.63 237 24800 level Albuquerque Center
09:47AM 35.27 -106.54 237 24900 climbing Albuquerque Center
09:48AM 35.27 -106.48 225 24800 descending Albuquerque Center
09:49AM 35.28 -106.39 225 24900 climbing Albuquerque Center
09:50AM 35.29 -106.31 230 24900 level Albuquerque Center
09:51AM 35.30 -106.23 235 24900 level Albuquerque Center
09:52AM 35.30 -106.15 235 24900 level Albuquerque Center
09:53AM 35.30 -106.07 235 24900 level Albuquerque Center
09:54AM 35.31 -105.99 235 24900 level Albuquerque Center
09:55AM 35.32 -105.92 235 24900 level Albuquerque Center
09:56AM 35.33 -105.83 235 24900 level Albuquerque Center
09:57AM 35.33 -105.75 230 24900 level Albuquerque Center
09:58AM 35.34 -105.68 235 24900 level Albuquerque Center
09:59AM 35.35 -105.61 235 24900 level Albuquerque Center
10:00AM 35.35 -105.53 234 24900 level Albuquerque Center
10:01AM 35.36 -105.45 234 24900 level Albuquerque Center
10:02AM 35.36 -105.37 234 24900 level Albuquerque Center
10:03AM 35.37 -105.29 234 24900 level Albuquerque Center
10:04AM 35.37 -105.21 234 24900 level Albuquerque Center
10:05AM 35.38 -105.12 233 24900 level Albuquerque Center
10:06AM 35.39 -105.05 233 24900 level Albuquerque Center
10:07AM 35.39 -104.96 238 24900 level Albuquerque Center
10:08AM 35.40 -104.88 233 24900 level Albuquerque Center
10:09AM 35.40 -104.80 233 24900 level Albuquerque Center
10:10AM 35.41 -104.72 233 24900 level Albuquerque Center
10:11AM 35.42 -104.64 238 24900 level Albuquerque Center
10:12AM 35.42 -104.56 238 24900 level Albuquerque Center
10:13AM 35.43 -104.49 238 24900 level Albuquerque Center
10:14AM 35.43 -104.41 238 24900 level Albuquerque Center
10:15AM 35.44 -104.33 238 24900 level Albuquerque Center
10:16AM 35.44 -104.24 238 24900 level Albuquerque Center
10:17AM 35.45 -104.15 238 24900 level Albuquerque Center
10:18AM 35.45 -104.07 238 24400 descending Albuquerque Center
10:19AM 35.46 -103.98 243 23900 descending Albuquerque Center
10:20AM 35.46 -103.90 249 23500 descending Albuquerque Center
10:21AM 35.47 -103.81 255 23000 descending Albuquerque Center
10:22AM 35.47 -103.72 255 22500 descending Albuquerque Center
10:23AM 35.48 -103.64 255 21900 descending Albuquerque Center
10:24AM 35.48 -103.56 250 21500 descending Albuquerque Center
10:25AM 35.49 -103.48 250 21000 descending Albuquerque Center
10:26AM 35.50 -103.39 250 20500 descending Albuquerque Center
10:27AM 35.50 -103.31 250 20000 descending Albuquerque Center
10:28AM 35.51 -103.23 250 19500 descending Albuquerque Center
10:29AM 35.51 -103.15 243 19000 descending Albuquerque Center
10:30AM 35.51 -103.06 238 18500 descending Albuquerque Center
10:31AM 35.52 -102.97 232 18100 descending Albuquerque Center
10:32AM 35.52 -102.89 237 17700 descending Albuquerque Center
10:33AM 35.53 -102.82 237 17200 descending Albuquerque Center
10:34AM 35.53 -102.74 237 16800 descending Albuquerque Center
10:35AM 35.54 -102.66 237 16300 descending Albuquerque Center
10:36AM 35.54 -102.58 237 15800 descending Albuquerque Center
10:37AM 35.55 -102.50 237 15300 descending Albuquerque Center
10:37AM 35.55 -102.44 231 15000 descending Albuquerque Center
10:38AM 35.55 -102.42 237 11000 descending Albuquerque Center
10:39AM 35.55 -102.34 232 14400 climbing Albuquerque Center
10:40AM 35.56 -102.27 227 13900 descending Albuquerque Center
10:41AM 35.56 -102.14 220 13100 descending Albuquerque Center
10:45AM 35.58 -101.85 209 11300 descending Albuquerque Center
10:46AM 35.58 -101.80 224 11000 descending Albuquerque Center
10:47AM 35.58 -101.73 225 10900 descending Albuquerque Center
10:48AM 35.59 -101.67 208 10900 level Albuquerque Center
10:49AM 35.59 -101.60 196 10900 level Albuquerque Center
10:50AM 35.59 -101.53 196 10900 level Albuquerque Center
10:51AM 35.59 -101.48 196 10700 descending Albuquerque Center
10:52AM 35.60 -101.40 196 10100 descending Albuquerque Center
10:53AM 35.60 -101.33 201 11000 climbing Albuquerque Center
10:54AM 35.60 -101.26 201 11000 level Albuquerque Center
10:55AM 35.61 -101.19 201 8000 descending Albuquerque Center
10:56AM 35.61 -101.13 196 11000 climbing Albuquerque Center
10:57AM 35.61 -101.06 186 11000 level Albuquerque Center

No Comments »

No comments yet.

RSS feed for comments on this post. TrackBack URL

Leave a comment

Powered by WordPress